ADDS METAR Data INFO
IDs: Format: Raw Decoded Include TAF

Data at: 1750 UTC 24 Mar 2017

METAR for:KBEA (Beeville Muni, TX, US)
Text:KBEA 241735Z AUTO 19011KT 10SM BKN037 BKN045 OVC050 26/20 A2995 RMK AO2 T02610199
Temperature: 26.1°C ( 79°F)
Dewpoint: 19.9°C ( 68°F) [RH = 69%]
Pressure (altimeter):29.95 inches Hg (1014.3 mb)
Winds:from the S (190 degrees) at 13 MPH (11 knots; 5.7 m/s)
Visibility:10 or more sm (16+ km)
Ceiling:3700 feet AGL
Clouds: broken clouds at 3700 feet AGL, broken clouds at 4500 feet AGL, overcast cloud deck at 5000 feet AGL
QC Flag:automated observation with no human augmentation


Page loaded:  17:50 UTC  |   10:50 AM Pacific  |   11:50 AM Mountain  |   12:50 PM Central  |   01:50 PM Eastern

 

ADVISORIES

FORECASTS

FORECASTS

OBSERVATIONS

USER TOOLS

ABOUT US